createdAt,value
2019-02-16T00:00:47.195Z,71.50
2019-02-16T00:03:16.642Z,71.20
2019-02-16T00:05:46.078Z,71.10
2019-02-16T00:08:15.521Z,71.00
2019-02-16T00:10:44.953Z,70.90
2019-02-16T00:13:14.397Z,71.00
2019-02-16T00:15:43.827Z,71.20
2019-02-16T00:18:13.264Z,71.40
2019-02-16T00:20:42.695Z,71.60
2019-02-16T00:23:12.133Z,71.70
2019-02-16T00:25:41.564Z,71.70
2019-02-16T00:28:11.001Z,73.20
2019-02-16T00:30:40.418Z,74.60
2019-02-16T00:33:09.868Z,73.20
2019-02-16T00:35:39.290Z,71.70
2019-02-16T00:38:08.715Z,71.80
2019-02-16T00:40:38.157Z,71.30
2019-02-16T00:43:07.577Z,71.10
2019-02-16T00:45:37.013Z,70.90
2019-02-16T00:48:06.434Z,70.90
2019-02-16T00:50:35.880Z,70.60
2019-02-16T00:53:05.309Z,70.70
2019-02-16T00:55:34.764Z,70.40
2019-02-16T00:58:04.205Z,70.40
2019-02-16T01:00:33.626Z,70.80
2019-02-16T01:03:03.092Z,70.40
2019-02-16T01:05:32.504Z,70.50
2019-02-16T01:08:01.942Z,70.50
2019-02-16T01:10:31.378Z,70.50
2019-02-16T01:13:00.808Z,70.90
2019-02-16T01:15:30.265Z,71.00
2019-02-16T01:17:59.685Z,70.70
2019-02-16T01:20:29.124Z,70.60
2019-02-16T01:22:58.544Z,70.30
2019-02-16T01:25:27.978Z,70.80
2019-02-16T01:27:57.399Z,70.50
2019-02-16T01:30:26.834Z,70.50
2019-02-16T01:32:56.261Z,69.70
2019-02-16T01:35:25.712Z,69.60
2019-02-16T01:37:55.126Z,69.90
2019-02-16T01:40:24.594Z,70.00
2019-02-16T01:42:54.020Z,70.40
2019-02-16T01:45:23.479Z,70.40
2019-02-16T01:47:52.898Z,70.80
2019-02-16T01:50:22.337Z,70.50
2019-02-16T01:52:51.768Z,70.80
2019-02-16T01:55:21.198Z,70.90
2019-02-16T01:57:50.615Z,70.90
2019-02-16T02:00:20.064Z,70.90
2019-02-16T02:02:49.488Z,71.90
2019-02-16T02:05:18.924Z,71.20
2019-02-16T02:07:48.350Z,71.20
2019-02-16T02:10:17.791Z,71.60
2019-02-16T02:12:47.205Z,71.60
2019-02-16T02:15:16.651Z,71.90
2019-02-16T02:17:46.075Z,72.10
2019-02-16T02:20:15.514Z,72.00
2019-02-16T02:22:44.936Z,72.30
2019-02-16T02:25:14.373Z,72.30
2019-02-16T02:27:43.798Z,72.40
2019-02-16T02:30:13.233Z,72.40
2019-02-16T02:32:42.651Z,72.70
2019-02-16T02:35:12.093Z,73.00
2019-02-16T02:37:41.525Z,72.80
2019-02-16T02:40:11.033Z,72.80
2019-02-16T02:42:40.462Z,72.80
2019-02-16T02:45:11.453Z,72.80
2019-02-16T02:47:40.902Z,73.00
2019-02-16T02:50:10.394Z,73.10
2019-02-16T02:52:39.806Z,72.90
2019-02-16T02:55:09.332Z,72.80
2019-02-16T02:57:38.760Z,72.60
2019-02-16T03:00:10.637Z,72.60
2019-02-16T03:02:40.053Z,72.60
2019-02-16T03:05:10.928Z,72.50
2019-02-16T03:07:40.364Z,72.50
2019-02-16T03:10:09.875Z,72.80
2019-02-16T03:12:39.304Z,73.00
2019-02-16T03:15:08.930Z,72.90
2019-02-16T03:17:38.340Z,73.20
2019-02-16T03:20:07.941Z,73.20
2019-02-16T03:23:11.766Z,73.30
2019-02-16T03:25:44.119Z,73.20
2019-02-16T03:28:35.664Z,73.40
2019-02-16T03:31:24.641Z,73.30
2019-02-16T03:34:16.188Z,73.10
2019-02-16T03:37:08.032Z,72.60
2019-02-16T03:39:40.679Z,71.50
2019-02-16T03:42:10.115Z,71.40
2019-02-16T03:44:39.545Z,71.70
2019-02-16T03:47:09.004Z,72.00
2019-02-16T03:49:38.426Z,72.00
2019-02-16T03:52:13.902Z,72.00
2019-02-16T03:54:39.012Z,72.20
2019-02-16T03:57:08.458Z,72.30
2019-02-16T03:59:37.879Z,72.30
2019-02-16T04:02:07.322Z,72.50
2019-02-16T04:04:36.741Z,72.50
2019-02-16T04:07:06.175Z,72.80
2019-02-16T04:09:35.597Z,72.90
2019-02-16T04:12:05.018Z,73.00
2019-02-16T04:14:34.460Z,73.20
2019-02-16T04:17:03.902Z,73.00
2019-02-16T04:19:33.329Z,72.80
2019-02-16T04:22:02.770Z,73.00
2019-02-16T04:24:32.194Z,73.30
2019-02-16T04:27:01.645Z,74.00
2019-02-16T04:29:31.066Z,74.20
2019-02-16T04:32:00.514Z,74.10
2019-02-16T04:34:29.941Z,74.00
2019-02-16T04:36:59.370Z,74.30
2019-02-16T04:39:28.811Z,74.50
2019-02-16T04:41:58.267Z,74.50
2019-02-16T04:44:27.690Z,74.80
2019-02-16T04:46:57.139Z,74.90
2019-02-16T04:49:26.555Z,74.80
2019-02-16T04:51:56.003Z,74.80
2019-02-16T04:54:25.419Z,74.70
2019-02-16T04:56:54.875Z,74.60
2019-02-16T04:59:24.302Z,74.50
2019-02-16T05:01:53.740Z,74.50
2019-02-16T05:04:23.169Z,74.00
2019-02-16T05:06:52.606Z,74.30
2019-02-16T05:09:22.039Z,74.10
2019-02-16T05:11:51.478Z,74.20
2019-02-16T05:14:20.899Z,74.10
2019-02-16T05:16:50.355Z,74.00
2019-02-16T05:19:19.783Z,74.10
2019-02-16T05:21:49.214Z,74.10
2019-02-16T05:24:18.643Z,74.20
2019-02-16T05:26:48.068Z,74.20
2019-02-16T05:29:17.512Z,74.40
2019-02-16T05:31:47.291Z,74.50
2019-02-16T05:34:16.750Z,74.50
2019-02-16T05:36:46.196Z,74.50
2019-02-16T05:39:15.624Z,74.70
2019-02-16T05:41:45.048Z,74.60
2019-02-16T05:44:14.486Z,74.70
2019-02-16T05:46:43.910Z,74.50
2019-02-16T05:49:13.348Z,74.70
2019-02-16T05:51:42.791Z,74.60
2019-02-16T05:54:12.217Z,74.80
2019-02-16T05:56:41.654Z,74.40
2019-02-16T05:59:11.094Z,74.40
2019-02-16T06:01:40.521Z,74.20
2019-02-16T06:04:09.976Z,73.30
2019-02-16T06:06:39.402Z,72.80
2019-02-16T06:09:08.862Z,72.80
2019-02-16T06:11:38.292Z,72.10
2019-02-16T06:14:07.732Z,72.00
2019-02-16T06:16:37.204Z,71.90
2019-02-16T06:19:06.634Z,72.30
2019-02-16T06:21:36.053Z,72.20
2019-02-16T06:24:05.498Z,72.40
2019-02-16T06:26:34.927Z,72.60
2019-02-16T06:29:04.368Z,72.50
2019-02-16T06:31:34.688Z,72.20
2019-02-16T06:34:04.136Z,72.10
2019-02-16T06:36:35.601Z,72.20
2019-02-16T06:39:05.855Z,72.00
2019-02-16T06:41:35.269Z,71.90
2019-02-16T06:44:04.708Z,71.70
2019-02-16T06:46:34.135Z,71.60
2019-02-16T06:49:03.565Z,71.60
2019-02-16T06:51:32.984Z,71.40
2019-02-16T06:54:02.454Z,71.10
2019-02-16T06:56:35.922Z,71.10
2019-02-16T06:59:05.369Z,71.20
2019-02-16T07:01:34.791Z,71.10
2019-02-16T07:04:04.255Z,71.20
2019-02-16T07:06:33.695Z,71.50
2019-02-16T07:09:03.714Z,70.80
2019-02-16T07:11:33.149Z,70.50
2019-02-16T07:14:02.593Z,70.50
2019-02-16T07:16:33.647Z,70.20
2019-02-16T07:19:04.745Z,69.40
2019-02-16T07:21:34.186Z,69.20
2019-02-16T07:24:03.646Z,69.40
2019-02-16T07:26:33.074Z,68.80
2019-02-16T07:29:02.508Z,68.70
2019-02-16T07:31:31.951Z,68.70
2019-02-16T07:34:01.405Z,68.70
2019-02-16T07:36:30.829Z,68.40
2019-02-16T07:39:00.295Z,68.50
2019-02-16T07:41:29.730Z,68.00
2019-02-16T07:43:58.952Z,67.80
2019-02-16T07:46:41.708Z,66.80
2019-02-16T07:49:18.513Z,66.60
2019-02-16T07:51:51.990Z,66.00
2019-02-16T07:54:38.961Z,64.60
2019-02-16T07:57:12.752Z,62.50
2019-02-16T07:59:50.392Z,60.00
2019-02-16T08:02:21.455Z,59.10
2019-02-16T08:04:58.239Z,57.10
2019-02-16T08:07:32.005Z,55.20
2019-02-16T08:10:03.092Z,53.70
2019-02-16T08:12:42.821Z,51.00
2019-02-16T08:15:25.660Z,50.40
2019-02-16T08:18:12.409Z,49.00
2019-02-16T08:20:49.529Z,46.90
2019-02-16T08:23:40.314Z,44.80
2019-02-16T08:26:25.826Z,43.50
2019-02-16T08:28:59.587Z,42.10
2019-02-16T08:31:36.101Z,41.20
2019-02-16T08:34:07.189Z,40.40
2019-02-16T08:36:53.810Z,38.80
2019-02-16T08:39:40.968Z,38.80
2019-02-16T08:42:28.189Z,37.70
2019-02-16T08:45:05.058Z,37.20
2019-02-16T08:47:36.136Z,36.80
2019-02-16T08:50:10.659Z,36.00
2019-02-16T08:52:50.379Z,35.60
2019-02-16T08:55:33.066Z,35.30
2019-02-16T08:58:15.912Z,34.80
2019-02-16T09:00:49.906Z,34.30
2019-02-16T09:03:26.920Z,33.50
2019-02-16T09:05:58.103Z,34.00
2019-02-16T09:08:40.926Z,33.70
2019-02-16T09:11:12.043Z,33.00
2019-02-16T09:13:55.044Z,34.50
2019-02-16T09:16:26.204Z,34.50
2019-02-16T09:19:05.668Z,34.50
2019-02-16T09:21:36.743Z,34.50
2019-02-16T09:24:16.496Z,33.90
2019-02-16T09:26:45.711Z,34.40
2019-02-16T09:29:14.916Z,33.20
2019-02-16T09:31:54.782Z,33.10
2019-02-16T09:34:25.970Z,32.30
2019-02-16T09:36:57.593Z,32.00
2019-02-16T09:39:44.537Z,30.90
2019-02-16T09:42:15.616Z,31.20
2019-02-16T09:45:04.210Z,30.60
2019-02-16T09:47:44.155Z,30.70
2019-02-16T09:50:20.738Z,31.20
2019-02-16T09:52:52.925Z,30.80
2019-02-16T09:55:24.005Z,30.30
2019-02-16T09:57:55.083Z,29.20
2019-02-16T10:00:42.058Z,29.50
2019-02-16T10:03:14.226Z,29.10
2019-02-16T10:05:54.147Z,28.50
2019-02-16T10:08:23.349Z,28.40
2019-02-16T10:10:54.444Z,29.50
2019-02-16T10:13:25.504Z,29.30
2019-02-16T10:15:54.739Z,28.70
2019-02-16T10:18:31.564Z,28.70
2019-02-16T10:21:02.740Z,28.00
2019-02-16T10:23:49.690Z,28.10
2019-02-16T10:26:18.912Z,27.20
2019-02-16T10:28:49.985Z,28.00
2019-02-16T10:31:21.072Z,27.70
2019-02-16T10:33:58.018Z,27.00
2019-02-16T10:36:34.893Z,25.40
2019-02-16T10:39:22.408Z,25.90
2019-02-16T10:42:11.126Z,26.10
2019-02-16T10:44:42.541Z,26.50
2019-02-16T10:47:19.255Z,26.70
2019-02-16T10:49:50.335Z,26.40
2019-02-16T10:52:30.608Z,25.30
2019-02-16T10:55:13.373Z,25.00
2019-02-16T10:57:50.153Z,24.60
2019-02-16T11:00:21.244Z,24.80
2019-02-16T11:02:52.319Z,25.20
2019-02-16T11:05:35.180Z,25.00
2019-02-16T11:08:14.894Z,25.20
2019-02-16T11:10:51.754Z,25.90
2019-02-16T11:13:28.688Z,24.70
2019-02-16T11:16:05.270Z,24.30
2019-02-16T11:18:52.148Z,24.30
2019-02-16T11:21:31.961Z,24.20
2019-02-16T11:24:05.938Z,23.60
2019-02-16T11:26:37.655Z,23.40
2019-02-16T11:29:11.421Z,23.70
2019-02-16T11:31:43.613Z,23.60
2019-02-16T11:34:32.477Z,23.90
2019-02-16T11:37:15.337Z,24.40
2019-02-16T11:39:52.370Z,23.80
2019-02-16T11:42:23.471Z,24.00
2019-02-16T11:45:00.554Z,23.70
2019-02-16T11:47:31.628Z,24.30
2019-02-16T11:50:05.420Z,25.00
2019-02-16T11:52:45.184Z,23.80
2019-02-16T11:55:22.213Z,24.00
2019-02-16T11:57:53.306Z,23.70
2019-02-16T12:00:22.516Z,23.70
2019-02-16T12:02:57.848Z,23.60
2019-02-16T12:05:28.932Z,23.30
2019-02-16T12:08:02.439Z,23.60
2019-02-16T12:10:33.513Z,23.70
2019-02-16T12:13:20.612Z,23.90
2019-02-16T12:15:54.375Z,23.40
2019-02-16T12:18:30.906Z,23.50
2019-02-16T12:21:04.686Z,24.00
2019-02-16T12:23:35.808Z,23.80
2019-02-16T12:26:04.967Z,24.10
2019-02-16T12:28:41.976Z,24.30
2019-02-16T12:31:13.151Z,24.50
2019-02-16T12:33:52.603Z,24.00
2019-02-16T12:36:26.146Z,24.40
2019-02-16T12:39:12.226Z,24.00
2019-02-16T12:41:43.323Z,23.90
2019-02-16T12:44:17.068Z,23.70
2019-02-16T12:46:48.170Z,25.40
2019-02-16T12:49:19.240Z,26.40
2019-02-16T12:52:07.863Z,25.10
2019-02-16T12:54:47.450Z,24.80
2019-02-16T12:57:30.449Z,25.20
2019-02-16T13:00:01.601Z,23.70
2019-02-16T13:02:48.925Z,23.70
2019-02-16T13:05:31.803Z,23.90
2019-02-16T13:08:14.708Z,23.80
2019-02-16T13:10:48.164Z,22.40
2019-02-16T13:13:19.270Z,23.10
2019-02-16T13:15:50.347Z,21.80
2019-02-16T13:18:33.196Z,22.10
2019-02-16T13:21:13.007Z,21.80
2019-02-16T13:23:46.747Z,22.20
2019-02-16T13:26:32.886Z,24.20
2019-02-16T13:29:18.817Z,25.90
2019-02-16T13:31:52.559Z,26.50
2019-02-16T13:34:21.756Z,27.10
2019-02-16T13:37:08.448Z,26.60
2019-02-16T13:39:45.466Z,26.90
2019-02-16T13:42:22.283Z,26.90
2019-02-16T13:44:53.348Z,26.40
2019-02-16T13:47:26.838Z,26.00
2019-02-16T13:50:00.661Z,26.00
2019-02-16T13:52:34.443Z,26.50
2019-02-16T13:55:07.921Z,26.40
2019-02-16T13:57:44.919Z,26.90
2019-02-16T14:00:24.760Z,26.10
2019-02-16T14:02:55.886Z,27.90
2019-02-16T14:05:42.759Z,45.80
2019-02-16T14:08:22.613Z,40.90
2019-02-16T14:10:53.701Z,32.00
2019-02-16T14:13:30.497Z,31.00
2019-02-16T14:16:01.564Z,35.60
2019-02-16T14:18:31.024Z,32.60
2019-02-16T14:21:00.481Z,30.00
2019-02-16T14:23:29.939Z,32.10
2019-02-16T14:25:59.363Z,30.40
2019-02-16T14:28:28.819Z,33.00
2019-02-16T14:30:58.268Z,29.10
2019-02-16T14:33:28.563Z,30.80
2019-02-16T14:35:58.077Z,29.30
2019-02-16T14:38:29.190Z,31.00
2019-02-16T14:40:58.650Z,36.00
2019-02-16T14:43:28.200Z,30.30
2019-02-16T14:45:57.636Z,31.80
2019-02-16T14:48:27.106Z,29.60
2019-02-16T14:50:56.640Z,29.40
2019-02-16T14:53:26.071Z,30.20
2019-02-16T14:55:55.507Z,30.40
2019-02-16T14:58:24.968Z,29.90
2019-02-16T15:00:54.407Z,30.10
2019-02-16T15:03:23.859Z,29.60
2019-02-16T15:05:53.291Z,29.60
2019-02-16T15:08:22.753Z,30.30
2019-02-16T15:10:52.182Z,33.40
2019-02-16T15:13:21.651Z,32.40
2019-02-16T15:15:51.121Z,32.20
2019-02-16T15:18:20.575Z,33.20
2019-02-16T15:20:50.003Z,31.20
2019-02-16T15:23:19.471Z,30.80
2019-02-16T15:25:48.901Z,31.40
2019-02-16T15:28:18.449Z,31.90
2019-02-16T15:31:07.221Z,32.50
2019-02-16T15:33:36.664Z,32.60
2019-02-16T15:36:06.128Z,33.70
2019-02-16T15:38:35.617Z,34.20
2019-02-16T15:41:05.079Z,32.90
2019-02-16T15:43:34.539Z,35.10
2019-02-16T15:46:03.981Z,35.50
2019-02-16T15:48:33.453Z,35.70
2019-02-16T15:51:02.902Z,36.60
2019-02-16T15:53:32.358Z,37.10
2019-02-16T15:56:10.058Z,36.10
2019-02-16T15:58:33.151Z,35.30
2019-02-16T16:01:02.578Z,35.90
2019-02-16T16:03:32.088Z,35.10
2019-02-16T16:06:01.589Z,35.80
2019-02-16T16:08:50.317Z,35.40
2019-02-16T16:11:27.488Z,36.20
2019-02-16T16:14:01.603Z,36.70
2019-02-16T16:16:35.445Z,37.30
2019-02-16T16:19:24.051Z,37.70
2019-02-16T16:22:04.110Z,37.50
2019-02-16T16:24:38.101Z,37.90
2019-02-16T16:27:14.869Z,37.50
2019-02-16T16:29:51.439Z,38.00
2019-02-16T16:32:28.264Z,37.90
2019-02-16T16:35:17.217Z,38.70
2019-02-16T16:37:59.066Z,38.20
2019-02-16T16:40:38.657Z,39.40
2019-02-16T16:43:12.125Z,40.80
2019-02-16T16:46:01.229Z,40.30
2019-02-16T16:48:35.371Z,40.50
2019-02-16T16:51:22.500Z,41.10
2019-02-16T16:53:54.124Z,41.40
2019-02-16T16:56:28.959Z,41.70
2019-02-16T16:59:05.984Z,42.60
2019-02-16T17:01:51.886Z,43.10
2019-02-16T17:04:25.954Z,43.30
2019-02-16T17:06:57.594Z,44.20
2019-02-16T17:09:40.119Z,44.10
2019-02-16T17:12:19.961Z,44.80
2019-02-16T17:14:51.020Z,45.10
2019-02-16T17:17:22.102Z,45.80
2019-02-16T17:19:51.380Z,46.10
2019-02-16T17:22:29.631Z,45.00
2019-02-16T17:25:01.616Z,46.50
2019-02-16T17:27:32.683Z,46.90
2019-02-16T17:30:03.781Z,47.10
2019-02-16T17:32:46.409Z,47.30
2019-02-16T17:35:22.937Z,47.60
2019-02-16T17:38:02.652Z,47.70
2019-02-16T17:40:37.565Z,48.20
2019-02-16T17:43:11.338Z,48.10
2019-02-16T17:45:48.113Z,48.50
2019-02-16T17:48:24.846Z,49.60
2019-02-16T17:50:55.942Z,49.30
2019-02-16T17:53:25.137Z,49.40
2019-02-16T17:55:56.246Z,49.50
2019-02-16T17:58:30.202Z,48.90
2019-02-16T18:01:01.305Z,49.60
2019-02-16T18:03:38.457Z,49.80
2019-02-16T18:06:18.707Z,50.40
2019-02-16T18:09:05.609Z,50.10
2019-02-16T18:11:52.635Z,48.90
2019-02-16T18:14:41.557Z,48.80
2019-02-16T18:17:21.304Z,48.60
2019-02-16T18:19:50.560Z,48.90
2019-02-16T18:22:19.769Z,48.70
2019-02-16T18:25:06.749Z,48.20
2019-02-16T18:27:37.834Z,47.90
2019-02-16T18:30:21.371Z,49.00
2019-02-16T18:33:04.517Z,48.20
2019-02-16T18:35:38.712Z,47.90
2019-02-16T18:38:24.544Z,47.10
2019-02-16T18:41:04.184Z,46.30
2019-02-16T18:43:47.098Z,45.40
2019-02-16T18:46:21.327Z,45.00
2019-02-16T18:49:10.022Z,45.50
2019-02-16T18:51:43.561Z,45.10
2019-02-16T18:54:21.507Z,45.00
2019-02-16T18:57:06.422Z,45.20
2019-02-16T18:59:46.679Z,45.40
2019-02-16T19:02:23.499Z,45.40
2019-02-16T19:05:09.388Z,45.30
2019-02-16T19:07:48.878Z,45.90
2019-02-16T19:10:25.623Z,46.10
2019-02-16T19:12:59.094Z,46.40
2019-02-16T19:15:28.409Z,46.10
2019-02-16T19:18:01.888Z,45.60
2019-02-16T19:20:33.040Z,46.80
2019-02-16T19:23:04.111Z,46.90
2019-02-16T19:25:35.198Z,47.30
2019-02-16T19:28:06.275Z,47.40
2019-02-16T19:30:42.855Z,47.70
2019-02-16T19:33:25.636Z,48.20
2019-02-16T19:36:06.672Z,48.30
2019-02-16T19:38:40.209Z,48.80
2019-02-16T19:41:20.079Z,49.10
2019-02-16T19:43:51.148Z,49.80
2019-02-16T19:46:25.184Z,50.00
2019-02-16T19:48:54.378Z,50.20
2019-02-16T19:51:31.423Z,49.60
2019-02-16T19:54:03.312Z,49.60
2019-02-16T19:56:37.128Z,49.80
2019-02-16T19:59:08.985Z,49.40
2019-02-16T20:01:45.767Z,49.60
2019-02-16T20:04:19.224Z,50.10
2019-02-16T20:06:55.999Z,49.90
2019-02-16T20:09:29.761Z,49.70
2019-02-16T20:12:01.704Z,49.60
2019-02-16T20:14:50.998Z,49.60
2019-02-16T20:17:24.497Z,49.60
2019-02-16T20:20:01.226Z,49.90
2019-02-16T20:22:44.098Z,49.40
2019-02-16T20:25:15.159Z,49.70
2019-02-16T20:27:48.931Z,49.90
2019-02-16T20:30:35.891Z,49.90
2019-02-16T20:33:15.958Z,50.30
2019-02-16T20:35:47.032Z,50.00
2019-02-16T20:38:23.859Z,50.40
2019-02-16T20:40:57.558Z,50.20
2019-02-16T20:43:40.793Z,50.50
2019-02-16T20:46:14.821Z,50.60
2019-02-16T20:48:54.388Z,51.10
2019-02-16T20:51:40.295Z,51.00
2019-02-16T20:54:26.894Z,51.00
2019-02-16T20:57:12.865Z,51.20
2019-02-16T20:59:43.927Z,51.60
2019-02-16T21:02:24.016Z,51.50
2019-02-16T21:04:56.141Z,51.10
2019-02-16T21:07:25.353Z,51.10
2019-02-16T21:10:11.950Z,50.60
2019-02-16T21:12:45.738Z,52.70
2019-02-16T21:15:31.323Z,52.00
2019-02-16T21:18:20.639Z,51.50
2019-02-16T21:21:07.518Z,50.50
2019-02-16T21:23:41.491Z,50.70
2019-02-16T21:26:18.546Z,51.00
2019-02-16T21:28:49.605Z,51.20
2019-02-16T21:31:20.677Z,51.30
2019-02-16T21:33:54.430Z,51.60
2019-02-16T21:36:30.071Z,51.70
2019-02-16T21:39:12.469Z,51.80
2019-02-16T21:41:43.535Z,51.50
2019-02-16T21:44:14.660Z,52.00
2019-02-16T21:46:54.254Z,52.20
2019-02-16T21:49:24.866Z,52.30
2019-02-16T21:52:07.850Z,52.40
2019-02-16T21:54:55.009Z,52.30
2019-02-16T21:57:26.111Z,52.40
2019-02-16T22:00:12.747Z,52.40
2019-02-16T22:02:47.618Z,52.30
2019-02-16T22:05:21.647Z,52.40
2019-02-16T22:07:55.138Z,52.30
2019-02-16T22:10:34.731Z,52.50
2019-02-16T22:13:05.721Z,52.70
2019-02-16T22:15:35.209Z,52.40
2019-02-16T22:18:04.742Z,52.90
2019-02-16T22:20:34.173Z,53.10
2019-02-16T22:23:03.660Z,53.00
2019-02-16T22:25:33.079Z,53.10
2019-02-16T22:28:02.630Z,52.90
2019-02-16T22:30:32.110Z,53.20
2019-02-16T22:33:01.572Z,53.60
2019-02-16T22:35:30.972Z,53.20
2019-02-16T22:38:00.399Z,52.80
2019-02-16T22:40:29.960Z,53.10
2019-02-16T22:42:59.387Z,52.90
2019-02-16T22:45:28.833Z,53.00
2019-02-16T22:47:58.468Z,53.20
2019-02-16T22:50:27.909Z,53.50
2019-02-16T22:52:57.344Z,53.20
2019-02-16T22:55:26.753Z,53.40
2019-02-16T22:57:56.192Z,53.30
2019-02-16T23:00:30.332Z,53.60
2019-02-16T23:02:59.918Z,53.70
2019-02-16T23:05:29.465Z,53.90
2019-02-16T23:07:58.872Z,53.90
2019-02-16T23:10:28.299Z,54.20
2019-02-16T23:12:57.747Z,54.00
2019-02-16T23:15:27.201Z,53.80
2019-02-16T23:17:56.634Z,54.20
2019-02-16T23:20:27.596Z,54.00
2019-02-16T23:22:57.046Z,54.00
2019-02-16T23:25:26.532Z,53.90
2019-02-16T23:27:55.970Z,54.80
2019-02-16T23:30:26.064Z,54.80
2019-02-16T23:32:57.064Z,55.30
2019-02-16T23:35:26.596Z,55.30
2019-02-16T23:37:56.045Z,55.00
2019-02-16T23:40:25.474Z,55.60
2019-02-16T23:42:54.910Z,55.20
2019-02-16T23:45:24.334Z,55.00
2019-02-16T23:47:53.776Z,55.00
2019-02-16T23:50:23.195Z,55.50
2019-02-16T23:52:52.661Z,55.20
2019-02-16T23:55:22.101Z,54.80
2019-02-16T23:57:51.508Z,54.50
